sensor_id;sensor_type;location;lat;lon;timestamp;temperature;humidity
37426;DHT22;23285;50.180;7.036;2023-06-22T00:02:45;22.40;99.90
37426;DHT22;23285;50.180;7.036;2023-06-22T00:05:32;22.30;99.90
37426;DHT22;23285;50.180;7.036;2023-06-22T00:08:19;22.40;99.90
37426;DHT22;23285;50.180;7.036;2023-06-22T00:11:06;22.80;99.90
37426;DHT22;23285;50.180;7.036;2023-06-22T00:13:52;22.70;99.90
37426;DHT22;23285;50.180;7.036;2023-06-22T00:19:28;22.60;99.90
37426;DHT22;23285;50.180;7.036;2023-06-22T00:25:02;22.70;99.90
37426;DHT22;23285;50.180;7.036;2023-06-22T00:27:48;23.00;99.90
37426;DHT22;23285;50.180;7.036;2023-06-22T00:30:35;23.60;99.90
37426;DHT22;23285;50.180;7.036;2023-06-22T00:33:22;23.60;99.90
37426;DHT22;23285;50.180;7.036;2023-06-22T00:36:10;23.50;99.90
37426;DHT22;23285;50.180;7.036;2023-06-22T00:38:58;23.50;99.90
37426;DHT22;23285;50.180;7.036;2023-06-22T00:41:44;23.50;99.90
37426;DHT22;23285;50.180;7.036;2023-06-22T00:44:30;23.40;99.90
37426;DHT22;23285;50.180;7.036;2023-06-22T00:47:17;23.50;99.90
37426;DHT22;23285;50.180;7.036;2023-06-22T00:52:55;23.40;99.90
37426;DHT22;23285;50.180;7.036;2023-06-22T00:55:44;23.30;99.90
37426;DHT22;23285;50.180;7.036;2023-06-22T01:01:18;23.10;99.90
37426;DHT22;23285;50.180;7.036;2023-06-22T01:07:02;23.00;99.90
37426;DHT22;23285;50.180;7.036;2023-06-22T01:09:59;23.10;99.90
37426;DHT22;23285;50.180;7.036;2023-06-22T01:12:52;23.10;99.90
37426;DHT22;23285;50.180;7.036;2023-06-22T01:15:42;23.20;99.90
37426;DHT22;23285;50.180;7.036;2023-06-22T01:18:32;23.30;99.90
37426;DHT22;23285;50.180;7.036;2023-06-22T01:21:23;23.00;99.90
37426;DHT22;23285;50.180;7.036;2023-06-22T01:24:15;22.90;99.90
37426;DHT22;23285;50.180;7.036;2023-06-22T01:27:16;22.50;99.90
37426;DHT22;23285;50.180;7.036;2023-06-22T01:30:09;22.70;99.90
37426;DHT22;23285;50.180;7.036;2023-06-22T01:32:57;22.60;99.90
37426;DHT22;23285;50.180;7.036;2023-06-22T01:38:31;23.10;99.90
37426;DHT22;23285;50.180;7.036;2023-06-22T01:44:06;23.60;99.90
37426;DHT22;23285;50.180;7.036;2023-06-22T01:49:42;23.20;99.90
37426;DHT22;23285;50.180;7.036;2023-06-22T01:58:07;23.10;99.90
37426;DHT22;23285;50.180;7.036;2023-06-22T02:00:57;23.10;99.90
37426;DHT22;23285;50.180;7.036;2023-06-22T02:06:45;22.80;99.90
37426;DHT22;23285;50.180;7.036;2023-06-22T02:09:34;22.50;99.90
37426;DHT22;23285;50.180;7.036;2023-06-22T02:12:23;22.20;99.90
37426;DHT22;23285;50.180;7.036;2023-06-22T02:15:12;22.10;99.90
37426;DHT22;23285;50.180;7.036;2023-06-22T02:17:59;22.20;99.90
37426;DHT22;23285;50.180;7.036;2023-06-22T02:23:34;22.20;99.90
37426;DHT22;23285;50.180;7.036;2023-06-22T02:29:07;21.90;99.90
37426;DHT22;23285;50.180;7.036;2023-06-22T02:31:54;21.90;99.90
37426;DHT22;23285;50.180;7.036;2023-06-22T02:34:40;21.90;99.90
37426;DHT22;23285;50.180;7.036;2023-06-22T02:40:15;22.20;99.90
37426;DHT22;23285;50.180;7.036;2023-06-22T02:43:02;22.10;99.90
37426;DHT22;23285;50.180;7.036;2023-06-22T02:45:49;22.20;99.90
37426;DHT22;23285;50.180;7.036;2023-06-22T02:51:22;21.80;99.90
37426;DHT22;23285;50.180;7.036;2023-06-22T02:54:10;22.10;99.90
37426;DHT22;23285;50.180;7.036;2023-06-22T03:05:17;21.70;99.90
37426;DHT22;23285;50.180;7.036;2023-06-22T03:08:04;21.80;99.90
37426;DHT22;23285;50.180;7.036;2023-06-22T03:10:54;21.80;99.90
37426;DHT22;23285;50.180;7.036;2023-06-22T03:13:40;22.00;99.90
37426;DHT22;23285;50.180;7.036;2023-06-22T03:16:28;22.00;99.90
37426;DHT22;23285;50.180;7.036;2023-06-22T03:22:02;21.30;99.90
37426;DHT22;23285;50.180;7.036;2023-06-22T03:24:48;21.00;99.90
37426;DHT22;23285;50.180;7.036;2023-06-22T03:27:36;21.50;99.90
37426;DHT22;23285;50.180;7.036;2023-06-22T03:30:22;21.70;99.90
37426;DHT22;23285;50.180;7.036;2023-06-22T03:33:09;21.90;99.90
37426;DHT22;23285;50.180;7.036;2023-06-22T03:35:55;21.90;99.90
37426;DHT22;23285;50.180;7.036;2023-06-22T03:38:41;21.60;99.90
37426;DHT22;23285;50.180;7.036;2023-06-22T03:41:27;21.60;99.90
37426;DHT22;23285;50.180;7.036;2023-06-22T03:44:16;21.80;99.90
37426;DHT22;23285;50.180;7.036;2023-06-22T03:49:49;22.20;99.90
37426;DHT22;23285;50.180;7.036;2023-06-22T03:52:40;21.90;99.90
37426;DHT22;23285;50.180;7.036;2023-06-22T03:55:26;21.50;99.90
37426;DHT22;23285;50.180;7.036;2023-06-22T03:58:13;21.40;99.90
37426;DHT22;23285;50.180;7.036;2023-06-22T04:01:01;21.00;99.90
37426;DHT22;23285;50.180;7.036;2023-06-22T04:03:47;21.50;99.90
37426;DHT22;23285;50.180;7.036;2023-06-22T04:09:20;21.20;99.90
37426;DHT22;23285;50.180;7.036;2023-06-22T04:14:54;21.20;99.90
37426;DHT22;23285;50.180;7.036;2023-06-22T04:17:42;20.80;99.90
37426;DHT22;23285;50.180;7.036;2023-06-22T04:28:47;20.30;99.90
37426;DHT22;23285;50.180;7.036;2023-06-22T04:31:36;20.10;99.90
37426;DHT22;23285;50.180;7.036;2023-06-22T04:34:24;20.40;99.90
37426;DHT22;23285;50.180;7.036;2023-06-22T04:42:48;21.30;99.90
37426;DHT22;23285;50.180;7.036;2023-06-22T04:51:19;20.80;99.90
37426;DHT22;23285;50.180;7.036;2023-06-22T04:54:07;20.50;99.90
37426;DHT22;23285;50.180;7.036;2023-06-22T05:02:29;20.50;99.90
37426;DHT22;23285;50.180;7.036;2023-06-22T05:08:06;20.20;99.90
37426;DHT22;23285;50.180;7.036;2023-06-22T05:10:52;20.10;99.90
37426;DHT22;23285;50.180;7.036;2023-06-22T05:13:38;20.20;99.90
37426;DHT22;23285;50.180;7.036;2023-06-22T05:21:58;20.50;99.90
37426;DHT22;23285;50.180;7.036;2023-06-22T05:27:31;20.40;99.90
37426;DHT22;23285;50.180;7.036;2023-06-22T05:33:04;20.60;99.90
37426;DHT22;23285;50.180;7.036;2023-06-22T05:35:51;20.90;99.90
37426;DHT22;23285;50.180;7.036;2023-06-22T05:38:37;21.00;99.90
37426;DHT22;23285;50.180;7.036;2023-06-22T05:44:11;21.70;99.90
37426;DHT22;23285;50.180;7.036;2023-06-22T05:46:58;21.60;99.90
37426;DHT22;23285;50.180;7.036;2023-06-22T05:52:31;21.70;99.90
37426;DHT22;23285;50.180;7.036;2023-06-22T05:55:17;21.70;99.90
37426;DHT22;23285;50.180;7.036;2023-06-22T05:58:05;21.50;99.90
37426;DHT22;23285;50.180;7.036;2023-06-22T06:03:38;21.60;99.90
37426;DHT22;23285;50.180;7.036;2023-06-22T06:14:49;21.80;99.90
37426;DHT22;23285;50.180;7.036;2023-06-22T06:17:45;22.00;99.90
37426;DHT22;23285;50.180;7.036;2023-06-22T06:20:32;21.90;99.90
37426;DHT22;23285;50.180;7.036;2023-06-22T06:28:51;22.00;99.90
37426;DHT22;23285;50.180;7.036;2023-06-22T06:31:39;22.30;99.90
37426;DHT22;23285;50.180;7.036;2023-06-22T06:34:25;22.30;99.90
37426;DHT22;23285;50.180;7.036;2023-06-22T06:37:11;22.30;99.90
37426;DHT22;23285;50.180;7.036;2023-06-22T06:42:45;22.50;99.90
37426;DHT22;23285;50.180;7.036;2023-06-22T06:45:32;22.40;99.90
37426;DHT22;23285;50.180;7.036;2023-06-22T06:51:07;22.70;99.90
37426;DHT22;23285;50.180;7.036;2023-06-22T06:53:54;23.00;99.90
37426;DHT22;23285;50.180;7.036;2023-06-22T06:56:40;23.10;99.90
37426;DHT22;23285;50.180;7.036;2023-06-22T06:59:32;23.20;99.90
37426;DHT22;23285;50.180;7.036;2023-06-22T07:02:19;22.90;99.90
37426;DHT22;23285;50.180;7.036;2023-06-22T07:05:07;23.20;99.90
37426;DHT22;23285;50.180;7.036;2023-06-22T07:07:54;23.10;99.90
37426;DHT22;23285;50.180;7.036;2023-06-22T07:16:13;23.50;99.90
37426;DHT22;23285;50.180;7.036;2023-06-22T07:18:59;23.40;99.90
37426;DHT22;23285;50.180;7.036;2023-06-22T07:21:47;23.90;99.90
37426;DHT22;23285;50.180;7.036;2023-06-22T07:30:07;23.80;99.90
37426;DHT22;23285;50.180;7.036;2023-06-22T07:32:54;23.90;99.90
37426;DHT22;23285;50.180;7.036;2023-06-22T07:38:28;24.00;99.90
37426;DHT22;23285;50.180;7.036;2023-06-22T07:41:14;24.00;99.90
37426;DHT22;23285;50.180;7.036;2023-06-22T07:44:02;24.20;99.90
37426;DHT22;23285;50.180;7.036;2023-06-22T07:49:34;24.00;99.90
37426;DHT22;23285;50.180;7.036;2023-06-22T07:55:09;24.50;99.90
37426;DHT22;23285;50.180;7.036;2023-06-22T07:57:56;24.40;99.90
37426;DHT22;23285;50.180;7.036;2023-06-22T08:00:43;24.10;99.90
37426;DHT22;23285;50.180;7.036;2023-06-22T08:03:29;24.20;99.90
37426;DHT22;23285;50.180;7.036;2023-06-22T08:06:15;24.20;99.90
37426;DHT22;23285;50.180;7.036;2023-06-22T08:09:02;24.50;99.90
37426;DHT22;23285;50.180;7.036;2023-06-22T08:11:50;24.70;99.90
37426;DHT22;23285;50.180;7.036;2023-06-22T08:14:38;24.90;99.90
37426;DHT22;23285;50.180;7.036;2023-06-22T08:17:24;25.00;99.90
37426;DHT22;23285;50.180;7.036;2023-06-22T08:20:11;24.80;99.90
37426;DHT22;23285;50.180;7.036;2023-06-22T08:28:39;25.70;99.90
37426;DHT22;23285;50.180;7.036;2023-06-22T08:31:25;25.80;99.90
37426;DHT22;23285;50.180;7.036;2023-06-22T08:34:12;25.80;99.90
37426;DHT22;23285;50.180;7.036;2023-06-22T08:36:58;25.90;99.90
37426;DHT22;23285;50.180;7.036;2023-06-22T08:39:45;25.80;99.90
37426;DHT22;23285;50.180;7.036;2023-06-22T08:42:32;25.70;99.90
37426;DHT22;23285;50.180;7.036;2023-06-22T08:45:19;25.90;99.90
37426;DHT22;23285;50.180;7.036;2023-06-22T08:48:06;25.90;99.90
37426;DHT22;23285;50.180;7.036;2023-06-22T08:50:53;26.00;99.90
37426;DHT22;23285;50.180;7.036;2023-06-22T08:53:39;25.50;99.90
37426;DHT22;23285;50.180;7.036;2023-06-22T08:56:25;25.40;99.90
37426;DHT22;23285;50.180;7.036;2023-06-22T08:59:11;25.30;99.90
37426;DHT22;23285;50.180;7.036;2023-06-22T09:04:46;25.60;99.90
37426;DHT22;23285;50.180;7.036;2023-06-22T09:07:33;25.60;99.90
37426;DHT22;23285;50.180;7.036;2023-06-22T09:10:20;25.50;99.90
37426;DHT22;23285;50.180;7.036;2023-06-22T09:13:06;25.00;99.90
37426;DHT22;23285;50.180;7.036;2023-06-22T09:15:53;25.20;99.90
37426;DHT22;23285;50.180;7.036;2023-06-22T09:18:40;24.70;99.90
37426;DHT22;23285;50.180;7.036;2023-06-22T09:21:27;24.70;99.90
37426;DHT22;23285;50.180;7.036;2023-06-22T09:24:13;24.70;99.90
37426;DHT22;23285;50.180;7.036;2023-06-22T09:27:00;24.90;99.90
37426;DHT22;23285;50.180;7.036;2023-06-22T09:29:46;25.00;99.90
37426;DHT22;23285;50.180;7.036;2023-06-22T09:38:07;24.70;99.90
37426;DHT22;23285;50.180;7.036;2023-06-22T09:40:53;24.60;99.90
37426;DHT22;23285;50.180;7.036;2023-06-22T09:43:39;24.20;99.90
37426;DHT22;23285;50.180;7.036;2023-06-22T09:52:00;24.70;99.90
37426;DHT22;23285;50.180;7.036;2023-06-22T09:57:33;25.00;99.90
37426;DHT22;23285;50.180;7.036;2023-06-22T10:00:20;25.00;99.90
37426;DHT22;23285;50.180;7.036;2023-06-22T10:03:08;25.20;99.90
37426;DHT22;23285;50.180;7.036;2023-06-22T10:11:28;25.60;99.90
37426;DHT22;23285;50.180;7.036;2023-06-22T10:14:15;25.30;99.90
37426;DHT22;23285;50.180;7.036;2023-06-22T10:17:02;25.10;99.90
37426;DHT22;23285;50.180;7.036;2023-06-22T10:19:49;25.30;99.90
37426;DHT22;23285;50.180;7.036;2023-06-22T10:22:35;25.00;99.90
37426;DHT22;23285;50.180;7.036;2023-06-22T10:36:30;23.80;99.90
37426;DHT22;23285;50.180;7.036;2023-06-22T10:39:16;24.00;99.90
37426;DHT22;23285;50.180;7.036;2023-06-22T10:44:51;24.40;99.90
37426;DHT22;23285;50.180;7.036;2023-06-22T10:47:37;24.40;99.90
37426;DHT22;23285;50.180;7.036;2023-06-22T10:50:25;24.00;99.90
37426;DHT22;23285;50.180;7.036;2023-06-22T11:01:33;24.90;99.90
37426;DHT22;23285;50.180;7.036;2023-06-22T11:09:52;25.40;99.90
37426;DHT22;23285;50.180;7.036;2023-06-22T11:15:27;25.80;99.90
37426;DHT22;23285;50.180;7.036;2023-06-22T11:18:13;25.60;99.90
37426;DHT22;23285;50.180;7.036;2023-06-22T11:20:59;25.60;99.90
37426;DHT22;23285;50.180;7.036;2023-06-22T11:23:46;25.30;99.90
37426;DHT22;23285;50.180;7.036;2023-06-22T11:26:33;25.60;99.90
37426;DHT22;23285;50.180;7.036;2023-06-22T11:37:41;25.60;99.90
37426;DHT22;23285;50.180;7.036;2023-06-22T11:40:28;25.70;99.90
37426;DHT22;23285;50.180;7.036;2023-06-22T11:43:14;26.10;99.90
37426;DHT22;23285;50.180;7.036;2023-06-22T11:48:49;26.50;99.90
37426;DHT22;23285;50.180;7.036;2023-06-22T11:51:36;26.10;99.90
37426;DHT22;23285;50.180;7.036;2023-06-22T11:57:09;26.30;99.90
37426;DHT22;23285;50.180;7.036;2023-06-22T11:59:55;26.50;99.90
37426;DHT22;23285;50.180;7.036;2023-06-22T12:02:42;26.20;99.90
37426;DHT22;23285;50.180;7.036;2023-06-22T12:05:29;26.30;99.90
37426;DHT22;23285;50.180;7.036;2023-06-22T12:08:16;26.10;99.90
37426;DHT22;23285;50.180;7.036;2023-06-22T12:11:02;26.30;99.90
37426;DHT22;23285;50.180;7.036;2023-06-22T12:13:49;26.60;99.90
37426;DHT22;23285;50.180;7.036;2023-06-22T12:16:35;26.90;99.90
37426;DHT22;23285;50.180;7.036;2023-06-22T12:19:21;27.40;99.90
37426;DHT22;23285;50.180;7.036;2023-06-22T12:22:09;27.10;99.90
37426;DHT22;23285;50.180;7.036;2023-06-22T12:24:55;27.30;99.90
37426;DHT22;23285;50.180;7.036;2023-06-22T12:27:41;27.60;99.90
37426;DHT22;23285;50.180;7.036;2023-06-22T12:30:27;27.60;99.90
37426;DHT22;23285;50.180;7.036;2023-06-22T12:33:13;28.20;99.90
37426;DHT22;23285;50.180;7.036;2023-06-22T12:38:48;28.60;99.90
37426;DHT22;23285;50.180;7.036;2023-06-22T12:41:34;28.70;99.90
37426;DHT22;23285;50.180;7.036;2023-06-22T12:44:20;28.70;99.90
37426;DHT22;23285;50.180;7.036;2023-06-22T12:47:06;28.60;99.90
37426;DHT22;23285;50.180;7.036;2023-06-22T12:49:53;28.80;99.90
37426;DHT22;23285;50.180;7.036;2023-06-22T12:52:39;29.00;99.90
37426;DHT22;23285;50.180;7.036;2023-06-22T12:55:27;29.20;99.90
37426;DHT22;23285;50.180;7.036;2023-06-22T12:58:14;28.80;99.90
37426;DHT22;23285;50.180;7.036;2023-06-22T13:01:00;29.00;99.90
37426;DHT22;23285;50.180;7.036;2023-06-22T13:03:46;29.20;99.90
37426;DHT22;23285;50.180;7.036;2023-06-22T13:06:32;28.90;99.90
37426;DHT22;23285;50.180;7.036;2023-06-22T13:09:19;29.00;99.90
37426;DHT22;23285;50.180;7.036;2023-06-22T13:12:08;28.40;99.90
37426;DHT22;23285;50.180;7.036;2023-06-22T13:14:54;27.70;99.90
37426;DHT22;23285;50.180;7.036;2023-06-22T13:17:40;27.30;99.90
37426;DHT22;23285;50.180;7.036;2023-06-22T13:20:29;27.20;99.90
37426;DHT22;23285;50.180;7.036;2023-06-22T13:26:01;27.40;99.90
37426;DHT22;23285;50.180;7.036;2023-06-22T13:28:49;27.50;99.90
37426;DHT22;23285;50.180;7.036;2023-06-22T13:31:36;27.30;99.90
37426;DHT22;23285;50.180;7.036;2023-06-22T13:34:23;27.20;99.90
37426;DHT22;23285;50.180;7.036;2023-06-22T13:37:09;26.90;99.90
37426;DHT22;23285;50.180;7.036;2023-06-22T13:39:56;26.90;99.90
37426;DHT22;23285;50.180;7.036;2023-06-22T13:45:32;27.30;99.90
37426;DHT22;23285;50.180;7.036;2023-06-22T13:48:19;26.50;99.90
37426;DHT22;23285;50.180;7.036;2023-06-22T13:56:39;25.80;99.90
37426;DHT22;23285;50.180;7.036;2023-06-22T14:02:14;25.50;99.90
37426;DHT22;23285;50.180;7.036;2023-06-22T14:05:00;25.60;99.90
37426;DHT22;23285;50.180;7.036;2023-06-22T14:07:47;24.70;99.90
37426;DHT22;23285;50.180;7.036;2023-06-22T14:16:07;20.20;99.90
37426;DHT22;23285;50.180;7.036;2023-06-22T14:18:55;20.60;99.90
37426;DHT22;23285;50.180;7.036;2023-06-22T14:21:41;21.30;99.90
37426;DHT22;23285;50.180;7.036;2023-06-22T14:27:14;21.80;99.90
37426;DHT22;23285;50.180;7.036;2023-06-22T14:30:00;22.00;99.90
37426;DHT22;23285;50.180;7.036;2023-06-22T14:32:47;22.30;99.90
37426;DHT22;23285;50.180;7.036;2023-06-22T14:38:21;22.90;99.90
37426;DHT22;23285;50.180;7.036;2023-06-22T14:41:07;23.10;99.90
37426;DHT22;23285;50.180;7.036;2023-06-22T14:46:41;23.50;99.90
37426;DHT22;23285;50.180;7.036;2023-06-22T15:00:35;22.60;99.90
37426;DHT22;23285;50.180;7.036;2023-06-22T15:03:21;22.70;99.90
37426;DHT22;23285;50.180;7.036;2023-06-22T15:06:12;22.60;99.90
37426;DHT22;23285;50.180;7.036;2023-06-22T15:09:01;22.40;99.90
37426;DHT22;23285;50.180;7.036;2023-06-22T15:11:47;22.20;99.90
37426;DHT22;23285;50.180;7.036;2023-06-22T15:17:20;21.80;99.90
37426;DHT22;23285;50.180;7.036;2023-06-22T15:20:07;22.00;99.90
37426;DHT22;23285;50.180;7.036;2023-06-22T15:22:53;21.70;99.90
37426;DHT22;23285;50.180;7.036;2023-06-22T15:25:41;21.60;99.90
37426;DHT22;23285;50.180;7.036;2023-06-22T15:28:29;21.70;99.90
37426;DHT22;23285;50.180;7.036;2023-06-22T15:31:17;21.90;99.90
37426;DHT22;23285;50.180;7.036;2023-06-22T15:34:03;21.80;99.90
37426;DHT22;23285;50.180;7.036;2023-06-22T15:36:49;21.90;99.90
37426;DHT22;23285;50.180;7.036;2023-06-22T15:39:35;22.00;99.90
37426;DHT22;23285;50.180;7.036;2023-06-22T15:42:23;21.90;99.90
37426;DHT22;23285;50.180;7.036;2023-06-22T15:45:10;21.90;99.90
37426;DHT22;23285;50.180;7.036;2023-06-22T15:47:56;22.10;99.90
37426;DHT22;23285;50.180;7.036;2023-06-22T15:53:29;22.50;99.90
37426;DHT22;23285;50.180;7.036;2023-06-22T15:56:15;22.50;99.90
37426;DHT22;23285;50.180;7.036;2023-06-22T15:59:07;22.40;99.90
37426;DHT22;23285;50.180;7.036;2023-06-22T16:01:53;22.60;99.90
37426;DHT22;23285;50.180;7.036;2023-06-22T16:04:40;22.40;99.90
37426;DHT22;23285;50.180;7.036;2023-06-22T16:07:55;22.40;99.90
37426;DHT22;23285;50.180;7.036;2023-06-22T16:10:42;22.70;99.90
37426;DHT22;23285;50.180;7.036;2023-06-22T16:13:28;22.60;99.90
37426;DHT22;23285;50.180;7.036;2023-06-22T16:19:03;23.00;99.90
37426;DHT22;23285;50.180;7.036;2023-06-22T16:21:49;23.30;99.90
37426;DHT22;23285;50.180;7.036;2023-06-22T16:30:10;23.50;99.90
37426;DHT22;23285;50.180;7.036;2023-06-22T16:32:58;23.60;99.90
37426;DHT22;23285;50.180;7.036;2023-06-22T16:38:30;23.70;99.90
37426;DHT22;23285;50.180;7.036;2023-06-22T16:44:05;23.40;99.90
37426;DHT22;23285;50.180;7.036;2023-06-22T16:46:51;23.30;99.90
37426;DHT22;23285;50.180;7.036;2023-06-22T16:55:12;23.30;99.90
37426;DHT22;23285;50.180;7.036;2023-06-22T17:09:14;23.60;99.90
37426;DHT22;23285;50.180;7.036;2023-06-22T17:14:48;24.00;99.90
37426;DHT22;23285;50.180;7.036;2023-06-22T17:20:24;23.40;99.90
37426;DHT22;23285;50.180;7.036;2023-06-22T17:28:48;23.30;99.90
37426;DHT22;23285;50.180;7.036;2023-06-22T17:31:39;23.20;99.90
37426;DHT22;23285;50.180;7.036;2023-06-22T17:34:28;23.10;99.90
37426;DHT22;23285;50.180;7.036;2023-06-22T17:37:14;23.00;99.90
37426;DHT22;23285;50.180;7.036;2023-06-22T17:40:02;23.10;99.90
37426;DHT22;23285;50.180;7.036;2023-06-22T17:42:49;23.30;99.90
37426;DHT22;23285;50.180;7.036;2023-06-22T17:45:40;23.30;99.90
37426;DHT22;23285;50.180;7.036;2023-06-22T17:48:30;22.90;99.90
37426;DHT22;23285;50.180;7.036;2023-06-22T17:51:18;22.60;99.90
37426;DHT22;23285;50.180;7.036;2023-06-22T17:54:04;22.40;99.90
37426;DHT22;23285;50.180;7.036;2023-06-22T17:56:52;22.60;99.90
37426;DHT22;23285;50.180;7.036;2023-06-22T17:59:38;22.50;99.90
37426;DHT22;23285;50.180;7.036;2023-06-22T18:07:59;22.50;99.90
37426;DHT22;23285;50.180;7.036;2023-06-22T18:10:46;22.20;99.90
37426;DHT22;23285;50.180;7.036;2023-06-22T18:16:22;21.90;99.90
37426;DHT22;23285;50.180;7.036;2023-06-22T18:19:10;21.70;99.90
37426;DHT22;23285;50.180;7.036;2023-06-22T18:33:07;21.50;99.90
37426;DHT22;23285;50.180;7.036;2023-06-22T18:35:54;21.40;99.90
37426;DHT22;23285;50.180;7.036;2023-06-22T18:41:34;21.50;99.90
37426;DHT22;23285;50.180;7.036;2023-06-22T18:50:05;20.80;99.90
37426;DHT22;23285;50.180;7.036;2023-06-22T18:53:01;20.70;99.90
37426;DHT22;23285;50.180;7.036;2023-06-22T18:58:36;20.50;99.90
37426;DHT22;23285;50.180;7.036;2023-06-22T19:04:16;20.00;99.90
37426;DHT22;23285;50.180;7.036;2023-06-22T19:21:21;19.60;99.90
37426;DHT22;23285;50.180;7.036;2023-06-22T19:26:54;19.70;99.90
37426;DHT22;23285;50.180;7.036;2023-06-22T19:29:41;19.60;99.90
37426;DHT22;23285;50.180;7.036;2023-06-22T19:32:29;19.40;99.90
37426;DHT22;23285;50.180;7.036;2023-06-22T19:38:04;19.40;99.90
37426;DHT22;23285;50.180;7.036;2023-06-22T19:40:50;19.40;99.90
37426;DHT22;23285;50.180;7.036;2023-06-22T19:46:28;19.20;99.90
37426;DHT22;23285;50.180;7.036;2023-06-22T19:54:53;18.90;99.90
37426;DHT22;23285;50.180;7.036;2023-06-22T19:57:41;19.00;99.90
37426;DHT22;23285;50.180;7.036;2023-06-22T20:00:29;19.20;99.90
37426;DHT22;23285;50.180;7.036;2023-06-22T20:08:55;18.80;99.90
37426;DHT22;23285;50.180;7.036;2023-06-22T20:11:44;18.90;99.90
37426;DHT22;23285;50.180;7.036;2023-06-22T20:17:20;19.10;99.90
37426;DHT22;23285;50.180;7.036;2023-06-22T20:20:18;18.80;99.90
37426;DHT22;23285;50.180;7.036;2023-06-22T20:23:05;18.70;99.90
37426;DHT22;23285;50.180;7.036;2023-06-22T20:28:43;18.70;99.90
37426;DHT22;23285;50.180;7.036;2023-06-22T20:34:19;18.70;99.90
37426;DHT22;23285;50.180;7.036;2023-06-22T20:42:39;18.30;99.90
37426;DHT22;23285;50.180;7.036;2023-06-22T20:45:28;18.50;99.90
37426;DHT22;23285;50.180;7.036;2023-06-22T20:48:14;18.20;99.90
37426;DHT22;23285;50.180;7.036;2023-06-22T20:51:01;18.00;99.90
37426;DHT22;23285;50.180;7.036;2023-06-22T20:59:21;17.80;99.90
37426;DHT22;23285;50.180;7.036;2023-06-22T21:02:10;17.70;99.90
37426;DHT22;23285;50.180;7.036;2023-06-22T21:07:43;17.80;99.90
37426;DHT22;23285;50.180;7.036;2023-06-22T21:10:29;17.70;99.90
37426;DHT22;23285;50.180;7.036;2023-06-22T21:21:37;17.60;99.90
37426;DHT22;23285;50.180;7.036;2023-06-22T21:24:23;17.70;99.90
37426;DHT22;23285;50.180;7.036;2023-06-22T21:27:09;17.50;99.90
37426;DHT22;23285;50.180;7.036;2023-06-22T21:35:30;17.40;99.90
37426;DHT22;23285;50.180;7.036;2023-06-22T21:41:03;17.50;99.90
37426;DHT22;23285;50.180;7.036;2023-06-22T21:43:50;17.50;99.90
37426;DHT22;23285;50.180;7.036;2023-06-22T21:46:36;17.60;99.90
37426;DHT22;23285;50.180;7.036;2023-06-22T22:00:30;17.90;99.90
37426;DHT22;23285;50.180;7.036;2023-06-22T22:03:16;17.80;99.90
37426;DHT22;23285;50.180;7.036;2023-06-22T22:08:50;17.70;99.90
37426;DHT22;23285;50.180;7.036;2023-06-22T22:14:23;18.10;99.90
37426;DHT22;23285;50.180;7.036;2023-06-22T22:17:09;18.20;99.90
37426;DHT22;23285;50.180;7.036;2023-06-22T22:19:55;18.30;99.90
37426;DHT22;23285;50.180;7.036;2023-06-22T22:22:41;18.20;99.90
37426;DHT22;23285;50.180;7.036;2023-06-22T22:25:29;18.20;99.90
37426;DHT22;23285;50.180;7.036;2023-06-22T22:33:49;18.30;99.90
37426;DHT22;23285;50.180;7.036;2023-06-22T22:36:35;18.40;99.90
37426;DHT22;23285;50.180;7.036;2023-06-22T22:42:22;18.10;99.90
37426;DHT22;23285;50.180;7.036;2023-06-22T22:45:09;17.70;99.90
37426;DHT22;23285;50.180;7.036;2023-06-22T22:47:56;17.70;99.90
37426;DHT22;23285;50.180;7.036;2023-06-22T22:50:42;18.00;99.90
37426;DHT22;23285;50.180;7.036;2023-06-22T22:56:15;18.00;99.90
37426;DHT22;23285;50.180;7.036;2023-06-22T22:59:03;18.10;99.90
37426;DHT22;23285;50.180;7.036;2023-06-22T23:01:49;18.40;99.90
37426;DHT22;23285;50.180;7.036;2023-06-22T23:04:37;18.50;99.90
37426;DHT22;23285;50.180;7.036;2023-06-22T23:07:24;18.50;99.90
37426;DHT22;23285;50.180;7.036;2023-06-22T23:10:13;18.40;99.90
37426;DHT22;23285;50.180;7.036;2023-06-22T23:12:59;18.30;99.90
37426;DHT22;23285;50.180;7.036;2023-06-22T23:15:46;18.20;99.90
37426;DHT22;23285;50.180;7.036;2023-06-22T23:29:41;18.60;99.90
37426;DHT22;23285;50.180;7.036;2023-06-22T23:35:17;18.60;99.90
37426;DHT22;23285;50.180;7.036;2023-06-22T23:38:03;18.30;99.90
37426;DHT22;23285;50.180;7.036;2023-06-22T23:40:49;18.30;99.90
37426;DHT22;23285;50.180;7.036;2023-06-22T23:46:23;18.20;99.90
37426;DHT22;23285;50.180;7.036;2023-06-22T23:49:11;18.20;99.90
37426;DHT22;23285;50.180;7.036;2023-06-22T23:51:59;17.90;99.90
37426;DHT22;23285;50.180;7.036;2023-06-22T23:54:45;17.70;99.90
37426;DHT22;23285;50.180;7.036;2023-06-22T23:57:31;17.80;99.90
